createdAt,value
2018-01-10T00:00:19.654Z,77.65
2018-01-10T00:02:48.855Z,76.82
2018-01-10T00:05:17.124Z,77.34
2018-01-10T00:07:45.408Z,77.08
2018-01-10T00:10:13.703Z,77.72
2018-01-10T00:12:41.958Z,77.73
2018-01-10T00:15:10.263Z,77.76
2018-01-10T00:17:38.514Z,77.75
2018-01-10T00:20:06.802Z,78.36
2018-01-10T00:22:35.038Z,78.39
2018-01-10T00:25:03.320Z,78.69
2018-01-10T00:27:31.592Z,78.35
2018-01-10T00:29:59.974Z,78.45
2018-01-10T00:32:28.251Z,78.75
2018-01-10T00:34:56.518Z,78.51
2018-01-10T00:37:24.813Z,78.38
2018-01-10T00:39:53.064Z,78.32
2018-01-10T00:42:21.351Z,78.78
2018-01-10T00:44:49.628Z,78.12
2018-01-10T00:47:17.925Z,77.68
2018-01-10T00:49:46.195Z,77.89
2018-01-10T00:52:14.464Z,77.85
2018-01-10T00:54:42.741Z,78.02
2018-01-10T00:57:11.059Z,78.08
2018-01-10T00:59:39.324Z,78.62
2018-01-10T01:02:07.628Z,78.77
2018-01-10T01:04:35.882Z,78.79
2018-01-10T01:07:04.127Z,78.65
2018-01-10T01:09:32.414Z,78.63
2018-01-10T01:12:00.662Z,78.44
2018-01-10T01:14:28.959Z,78.37
2018-01-10T01:16:57.315Z,78.64
2018-01-10T01:19:25.619Z,78.04
2018-01-10T01:21:53.876Z,77.91
2018-01-10T01:24:22.182Z,78.11
2018-01-10T01:26:50.827Z,77.63
2018-01-10T01:29:19.104Z,78.12
2018-01-10T01:31:47.486Z,78.52
2018-01-10T01:34:15.727Z,78.72
2018-01-10T01:36:44.039Z,79.00
2018-01-10T01:39:12.303Z,79.05
2018-01-10T01:41:40.590Z,78.81
2018-01-10T01:44:08.855Z,78.09
2018-01-10T01:46:37.131Z,78.66
2018-01-10T01:49:05.387Z,78.83
2018-01-10T01:51:33.695Z,79.08
2018-01-10T01:54:01.972Z,78.91
2018-01-10T01:56:30.247Z,78.27
2018-01-10T01:58:58.552Z,78.72
2018-01-10T02:01:26.802Z,78.73
2018-01-10T02:03:55.095Z,78.36
2018-01-10T02:06:23.359Z,78.02
2018-01-10T02:08:51.637Z,78.11
2018-01-10T02:11:19.907Z,78.66
2018-01-10T02:13:48.190Z,78.66
2018-01-10T02:16:16.452Z,79.32
2018-01-10T02:18:44.760Z,79.35
2018-01-10T02:21:13.034Z,79.13
2018-01-10T02:23:41.319Z,79.34
2018-01-10T02:26:09.562Z,79.87
2018-01-10T02:28:37.857Z,79.83
2018-01-10T02:31:06.115Z,79.48
2018-01-10T02:33:34.390Z,79.06
2018-01-10T02:36:02.691Z,79.07
2018-01-10T02:38:30.960Z,79.43
2018-01-10T02:40:59.244Z,79.38
2018-01-10T02:43:27.495Z,79.37
2018-01-10T02:45:55.779Z,79.45
2018-01-10T02:48:24.038Z,79.88
2018-01-10T02:50:52.332Z,79.42
2018-01-10T02:53:20.599Z,79.96
2018-01-10T02:55:48.911Z,79.91
2018-01-10T02:58:17.188Z,79.56
2018-01-10T03:00:45.491Z,79.87
2018-01-10T03:03:13.733Z,80.09
2018-01-10T03:05:42.347Z,79.98
2018-01-10T03:08:10.649Z,79.72
2018-01-10T03:10:38.948Z,80.11
2018-01-10T03:13:07.208Z,80.06
2018-01-10T03:15:35.463Z,80.33
2018-01-10T03:18:03.762Z,79.73
2018-01-10T03:20:32.010Z,79.80
2018-01-10T03:23:00.317Z,80.28
2018-01-10T03:25:28.572Z,80.03
2018-01-10T03:27:56.868Z,79.88
2018-01-10T03:30:25.137Z,80.18
2018-01-10T03:32:53.423Z,79.93
2018-01-10T03:35:21.702Z,79.88
2018-01-10T03:37:49.970Z,80.04
2018-01-10T03:40:18.262Z,79.95
2018-01-10T03:42:46.524Z,79.69
2018-01-10T03:45:14.797Z,79.42
2018-01-10T03:47:43.074Z,79.08
2018-01-10T03:50:11.368Z,78.72
2018-01-10T03:52:39.636Z,79.12
2018-01-10T03:55:07.902Z,79.45
2018-01-10T03:57:36.176Z,79.34
2018-01-10T04:00:05.478Z,79.62
2018-01-10T04:02:33.753Z,80.00
2018-01-10T04:05:02.035Z,79.82
2018-01-10T04:07:30.328Z,79.50
2018-01-10T04:09:58.597Z,79.46
2018-01-10T04:12:26.896Z,80.07
2018-01-10T04:14:55.211Z,79.87
2018-01-10T04:17:23.526Z,79.85
2018-01-10T04:19:51.775Z,79.81
2018-01-10T04:22:20.071Z,79.28
2018-01-10T04:24:48.356Z,79.26
2018-01-10T04:27:16.620Z,79.23
2018-01-10T04:29:44.892Z,78.89
2018-01-10T04:32:13.180Z,79.05
2018-01-10T04:34:41.451Z,79.08
2018-01-10T04:37:09.743Z,78.76
2018-01-10T04:39:38.218Z,78.95
2018-01-10T04:42:06.462Z,78.88
2018-01-10T04:44:34.754Z,78.69
2018-01-10T04:47:03.055Z,78.78
2018-01-10T04:49:31.336Z,78.64
2018-01-10T04:51:59.604Z,78.27
2018-01-10T04:54:27.899Z,77.86
2018-01-10T04:56:56.158Z,77.79
2018-01-10T04:59:24.442Z,77.22
2018-01-10T05:01:52.714Z,77.25
2018-01-10T05:04:20.989Z,77.11
2018-01-10T05:06:49.263Z,77.22
2018-01-10T05:09:17.518Z,76.92
2018-01-10T05:11:45.900Z,77.05
2018-01-10T05:14:14.176Z,77.17
2018-01-10T05:16:42.463Z,77.89
2018-01-10T05:19:10.756Z,77.99
2018-01-10T05:21:39.055Z,77.81
2018-01-10T05:24:07.395Z,77.50
2018-01-10T05:26:35.635Z,77.61
2018-01-10T05:29:04.104Z,78.15
2018-01-10T05:31:32.361Z,78.42
2018-01-10T05:34:00.619Z,78.25
2018-01-10T05:36:28.908Z,78.20
2018-01-10T05:38:57.357Z,77.86
2018-01-10T05:41:25.594Z,78.16
2018-01-10T05:43:53.892Z,78.43
2018-01-10T05:46:22.148Z,78.45
2018-01-10T05:48:50.427Z,78.39
2018-01-10T05:51:18.786Z,78.33
2018-01-10T05:53:47.070Z,78.23
2018-01-10T05:56:15.314Z,78.17
2018-01-10T05:58:43.591Z,77.94
2018-01-10T06:01:11.840Z,78.08
2018-01-10T06:03:40.119Z,77.74
2018-01-10T06:06:08.375Z,77.98
2018-01-10T06:08:36.679Z,77.84
2018-01-10T06:11:05.592Z,78.46
2018-01-10T06:13:33.869Z,78.91
2018-01-10T06:16:02.132Z,79.10
2018-01-10T06:18:30.448Z,79.43
2018-01-10T06:20:58.738Z,79.60
2018-01-10T06:23:27.008Z,79.14
2018-01-10T06:25:55.308Z,78.75
2018-01-10T06:28:23.563Z,78.37
2018-01-10T06:30:51.862Z,78.40
2018-01-10T06:33:20.132Z,78.22
2018-01-10T06:35:48.473Z,77.78
2018-01-10T06:38:16.764Z,77.43
2018-01-10T06:40:45.116Z,77.54
2018-01-10T06:43:13.347Z,77.81
2018-01-10T06:45:41.720Z,77.91
2018-01-10T06:48:09.997Z,77.94
2018-01-10T06:50:38.239Z,77.82
2018-01-10T06:53:06.544Z,78.12
2018-01-10T06:55:34.843Z,77.70
2018-01-10T06:58:03.204Z,77.88
2018-01-10T07:00:31.476Z,77.38
2018-01-10T07:03:00.041Z,77.01
2018-01-10T07:05:28.271Z,76.73
2018-01-10T07:07:56.586Z,76.55
2018-01-10T07:10:24.863Z,76.59
2018-01-10T07:12:53.150Z,76.83
2018-01-10T07:15:21.447Z,76.64
2018-01-10T07:17:49.724Z,76.69
2018-01-10T07:20:17.990Z,76.48
2018-01-10T07:22:46.264Z,76.25
2018-01-10T07:25:14.544Z,76.25
2018-01-10T07:27:42.929Z,76.60
2018-01-10T07:30:11.221Z,76.53
2018-01-10T07:32:39.507Z,76.58
2018-01-10T07:35:07.839Z,76.28
2018-01-10T07:37:36.298Z,76.24
2018-01-10T07:40:05.124Z,76.08
2018-01-10T07:42:33.408Z,76.27
2018-01-10T07:45:01.692Z,76.02
2018-01-10T07:47:29.995Z,75.69
2018-01-10T07:49:58.299Z,75.92
2018-01-10T07:52:26.574Z,75.49
2018-01-10T07:54:54.883Z,75.00
2018-01-10T07:57:23.175Z,74.48
2018-01-10T07:59:51.452Z,74.82
2018-01-10T08:02:19.776Z,75.18
2018-01-10T08:04:47.998Z,74.77
2018-01-10T08:07:16.341Z,75.03
2018-01-10T08:09:44.617Z,74.68
2018-01-10T08:12:12.932Z,74.86
2018-01-10T08:14:41.203Z,74.55
2018-01-10T08:17:09.505Z,74.38
2018-01-10T08:19:37.893Z,74.71
2018-01-10T08:22:06.131Z,75.05
2018-01-10T08:24:34.408Z,74.72
2018-01-10T08:27:02.659Z,74.25
2018-01-10T08:29:30.961Z,74.78
2018-01-10T08:32:00.059Z,74.55
2018-01-10T08:34:28.333Z,74.81
2018-01-10T08:36:56.613Z,74.45
2018-01-10T08:39:24.887Z,74.59
2018-01-10T08:41:53.168Z,73.89
2018-01-10T08:44:21.471Z,73.13
2018-01-10T08:46:49.723Z,73.38
2018-01-10T08:49:18.005Z,73.51
2018-01-10T08:51:46.279Z,73.37
2018-01-10T08:54:14.572Z,73.30
2018-01-10T08:56:42.848Z,72.63
2018-01-10T08:59:11.841Z,72.55
2018-01-10T09:01:40.150Z,72.31
2018-01-10T09:04:08.407Z,71.81
2018-01-10T09:06:36.730Z,72.23
2018-01-10T09:09:05.010Z,71.99
2018-01-10T09:11:34.021Z,71.41
2018-01-10T09:14:02.844Z,72.07
2018-01-10T09:16:31.142Z,71.84
2018-01-10T09:18:59.403Z,71.64
2018-01-10T09:21:27.718Z,71.45
2018-01-10T09:23:56.009Z,71.46
2018-01-10T09:26:24.356Z,70.84
2018-01-10T09:28:52.615Z,70.75
2018-01-10T09:31:20.947Z,70.38
2018-01-10T09:33:49.956Z,70.04
2018-01-10T09:36:18.251Z,70.03
2018-01-10T09:38:46.574Z,70.45
2018-01-10T09:41:14.803Z,69.81
2018-01-10T09:43:43.168Z,69.74
2018-01-10T09:46:11.451Z,69.87
2018-01-10T09:48:39.745Z,68.99
2018-01-10T09:51:08.127Z,69.23
2018-01-10T09:53:36.453Z,69.55
2018-01-10T09:56:05.030Z,69.56
2018-01-10T09:58:33.338Z,69.52
2018-01-10T10:01:01.620Z,69.53
2018-01-10T10:03:29.900Z,68.97
2018-01-10T10:05:58.175Z,68.44
2018-01-10T10:08:26.537Z,68.75
2018-01-10T10:10:54.795Z,68.63
2018-01-10T10:13:23.099Z,68.89
2018-01-10T10:15:51.359Z,68.56
2018-01-10T10:18:19.682Z,67.54
2018-01-10T10:20:47.987Z,68.21
2018-01-10T10:23:16.263Z,67.84
2018-01-10T10:25:44.563Z,68.04
2018-01-10T10:28:12.835Z,67.68
2018-01-10T10:30:41.175Z,68.14
2018-01-10T10:33:09.420Z,68.71
2018-01-10T10:35:37.716Z,68.35
2018-01-10T10:38:05.977Z,68.36
2018-01-10T10:40:34.285Z,67.66
2018-01-10T10:43:02.544Z,67.04
2018-01-10T10:45:30.854Z,67.59
2018-01-10T10:47:59.169Z,67.09
2018-01-10T10:50:27.475Z,67.09
2018-01-10T10:52:55.796Z,67.55
2018-01-10T10:55:24.102Z,66.74
2018-01-10T10:57:52.428Z,66.19
2018-01-10T11:00:21.536Z,66.26
2018-01-10T11:02:49.890Z,66.42
2018-01-10T11:05:18.196Z,65.07
2018-01-10T11:07:46.504Z,65.65
2018-01-10T11:10:14.808Z,65.77
2018-01-10T11:12:43.164Z,65.27
2018-01-10T11:15:11.509Z,65.31
2018-01-10T11:17:39.785Z,63.67
2018-01-10T11:20:10.024Z,64.56
2018-01-10T11:22:38.295Z,64.77
2018-01-10T11:25:06.627Z,63.32
2018-01-10T11:27:34.959Z,63.70
2018-01-10T11:30:03.246Z,63.28
2018-01-10T11:32:31.512Z,62.84
2018-01-10T11:34:59.916Z,62.41
2018-01-10T11:37:28.187Z,63.09
2018-01-10T11:39:56.484Z,62.00
2018-01-10T11:42:24.761Z,60.86
2018-01-10T11:44:53.073Z,61.68
2018-01-10T11:47:21.351Z,62.38
2018-01-10T11:49:49.636Z,62.71
2018-01-10T11:52:17.906Z,62.12
2018-01-10T11:54:46.315Z,62.41
2018-01-10T11:57:14.548Z,62.52
2018-01-10T11:59:42.865Z,61.86
2018-01-10T12:02:11.123Z,62.26
2018-01-10T12:04:39.432Z,62.85
2018-01-10T12:07:07.729Z,62.60
2018-01-10T12:09:35.998Z,62.29
2018-01-10T12:12:04.888Z,61.58
2018-01-10T12:14:33.215Z,61.55
2018-01-10T12:17:01.517Z,61.85
2018-01-10T12:19:29.875Z,62.02
2018-01-10T12:21:58.917Z,61.67
2018-01-10T12:24:27.236Z,61.78
2018-01-10T12:26:56.324Z,61.88
2018-01-10T12:29:24.667Z,62.12
2018-01-10T12:31:52.886Z,62.47
2018-01-10T12:34:21.223Z,61.79
2018-01-10T12:36:49.501Z,61.93
2018-01-10T12:39:18.228Z,61.42
2018-01-10T12:41:46.516Z,61.88
2018-01-10T12:44:14.832Z,62.07
2018-01-10T12:46:44.038Z,62.34
2018-01-10T12:49:12.354Z,62.67
2018-01-10T12:51:40.642Z,61.95
2018-01-10T12:54:10.135Z,62.10
2018-01-10T12:56:38.430Z,62.03
2018-01-10T12:59:07.198Z,61.88
2018-01-10T13:01:35.461Z,61.88
2018-01-10T13:04:03.765Z,60.96
2018-01-10T13:06:32.026Z,61.48
2018-01-10T13:09:00.348Z,61.36
2018-01-10T13:11:28.632Z,60.73
2018-01-10T13:13:56.871Z,60.81
2018-01-10T13:16:25.188Z,60.95
2018-01-10T13:18:53.463Z,60.34
2018-01-10T13:21:21.764Z,60.51
2018-01-10T13:23:50.057Z,60.62
2018-01-10T13:26:18.347Z,60.49
2018-01-10T13:28:46.673Z,60.84
2018-01-10T13:31:14.976Z,60.40
2018-01-10T13:33:43.240Z,61.00
2018-01-10T13:36:11.511Z,61.17
2018-01-10T13:38:39.839Z,60.58
2018-01-10T13:41:08.150Z,61.01
2018-01-10T13:43:36.414Z,61.46
2018-01-10T13:46:04.848Z,61.49
2018-01-10T13:48:33.125Z,61.16
2018-01-10T13:51:01.433Z,61.80
2018-01-10T13:53:29.720Z,61.51
2018-01-10T13:55:58.002Z,62.06
2018-01-10T13:58:26.359Z,61.74
2018-01-10T14:00:54.659Z,61.97
2018-01-10T14:03:22.987Z,62.18
2018-01-10T14:05:51.338Z,62.43
2018-01-10T14:08:19.640Z,62.83
2018-01-10T14:10:47.948Z,63.78
2018-01-10T14:13:16.232Z,63.59
2018-01-10T14:15:44.504Z,65.05
2018-01-10T14:18:12.775Z,64.24
2018-01-10T14:20:41.079Z,64.40
2018-01-10T14:23:09.407Z,64.23
2018-01-10T14:25:37.768Z,64.35
2018-01-10T14:28:06.059Z,64.60
2018-01-10T14:30:34.466Z,64.73
2018-01-10T14:33:02.717Z,63.79
2018-01-10T14:35:31.101Z,64.39
2018-01-10T14:37:59.401Z,64.52
2018-01-10T14:40:27.691Z,64.06
2018-01-10T14:42:56.015Z,64.22
2018-01-10T14:45:24.312Z,64.81
2018-01-10T14:47:52.618Z,65.67
2018-01-10T14:50:20.911Z,65.25
2018-01-10T14:52:49.272Z,65.58
2018-01-10T14:55:17.600Z,65.90
2018-01-10T14:57:45.894Z,66.13
2018-01-10T15:00:14.156Z,65.98
2018-01-10T15:02:43.156Z,66.16
2018-01-10T15:05:11.458Z,65.45
2018-01-10T15:07:39.768Z,65.93
2018-01-10T15:10:08.054Z,65.74
2018-01-10T15:12:36.384Z,65.13
2018-01-10T15:15:05.582Z,65.28
2018-01-10T15:17:33.909Z,65.54
2018-01-10T15:20:02.203Z,65.58
2018-01-10T15:22:30.615Z,65.30
2018-01-10T15:24:58.910Z,65.22
2018-01-10T15:27:27.171Z,65.48
2018-01-10T15:29:55.495Z,65.48
2018-01-10T15:32:23.761Z,65.91
2018-01-10T15:34:52.376Z,65.96
2018-01-10T15:37:20.690Z,66.26
2018-01-10T15:39:48.999Z,66.33
2018-01-10T15:42:17.269Z,66.41
2018-01-10T15:44:45.566Z,66.77
2018-01-10T15:47:13.836Z,66.75
2018-01-10T15:49:42.123Z,66.95
2018-01-10T15:52:10.422Z,67.04
2018-01-10T15:54:38.739Z,66.65
2018-01-10T15:57:07.695Z,66.40
2018-01-10T15:59:36.003Z,67.09
2018-01-10T16:02:05.350Z,66.90
2018-01-10T16:04:33.624Z,66.56
2018-01-10T16:07:01.926Z,67.09
2018-01-10T16:09:30.208Z,67.27
2018-01-10T16:11:58.534Z,67.17
2018-01-10T16:14:26.792Z,67.46
2018-01-10T16:16:55.128Z,67.24
2018-01-10T16:19:23.397Z,67.19
2018-01-10T16:21:51.764Z,67.14
2018-01-10T16:24:19.996Z,67.26
2018-01-10T16:26:48.261Z,66.99
2018-01-10T16:29:16.580Z,67.33
2018-01-10T16:31:44.832Z,67.31
2018-01-10T16:34:13.151Z,67.35
2018-01-10T16:36:41.429Z,67.08
2018-01-10T16:39:09.725Z,67.17
2018-01-10T16:41:38.094Z,67.59
2018-01-10T16:44:06.379Z,67.27
2018-01-10T16:46:34.739Z,67.63
2018-01-10T16:49:03.301Z,67.58
2018-01-10T16:51:31.595Z,67.69
2018-01-10T16:53:59.885Z,67.76
2018-01-10T16:56:28.161Z,67.35
2018-01-10T16:58:56.501Z,67.70
2018-01-10T17:01:24.757Z,67.92
2018-01-10T17:03:53.280Z,67.85
2018-01-10T17:06:21.537Z,67.97
2018-01-10T17:08:49.868Z,68.10
2018-01-10T17:11:18.196Z,68.50
2018-01-10T17:13:46.516Z,68.20
2018-01-10T17:16:14.937Z,67.66
2018-01-10T17:18:43.879Z,67.66
2018-01-10T17:21:12.217Z,68.46
2018-01-10T17:23:40.512Z,68.32
2018-01-10T17:26:08.824Z,68.47
2018-01-10T17:28:37.128Z,68.37
2018-01-10T17:31:05.428Z,68.55
2018-01-10T17:33:33.706Z,68.71
2018-01-10T17:36:02.033Z,68.86
2018-01-10T17:38:30.310Z,69.19
2018-01-10T17:40:58.576Z,69.50
2018-01-10T17:43:26.892Z,70.07
2018-01-10T17:45:55.202Z,69.37
2018-01-10T17:48:23.497Z,69.44
2018-01-10T17:50:51.749Z,69.60
2018-01-10T17:53:20.028Z,70.18
2018-01-10T17:55:48.307Z,69.87
2018-01-10T17:58:16.641Z,70.51
2018-01-10T18:00:44.897Z,70.37
2018-01-10T18:03:13.200Z,71.02
2018-01-10T18:05:41.489Z,70.84
2018-01-10T18:08:09.807Z,70.96
2018-01-10T18:10:38.105Z,71.38
2018-01-10T18:13:06.419Z,71.71
2018-01-10T18:15:34.673Z,71.25
2018-01-10T18:18:02.968Z,71.91
2018-01-10T18:20:31.314Z,71.69
2018-01-10T18:22:59.582Z,72.01
2018-01-10T18:25:28.497Z,71.77
2018-01-10T18:27:56.763Z,71.53
2018-01-10T18:30:25.103Z,71.50
2018-01-10T18:32:53.408Z,71.88
2018-01-10T18:35:22.745Z,72.02
2018-01-10T18:37:51.056Z,72.26
2018-01-10T18:40:19.356Z,72.19
2018-01-10T18:42:47.597Z,72.24
2018-01-10T18:45:15.895Z,72.34
2018-01-10T18:47:44.166Z,72.21
2018-01-10T18:50:13.050Z,71.77
2018-01-10T18:52:41.403Z,71.92
2018-01-10T18:55:09.672Z,71.87
2018-01-10T18:57:37.952Z,72.14
2018-01-10T19:00:06.253Z,72.32
2018-01-10T19:02:34.548Z,72.30
2018-01-10T19:05:02.846Z,72.24
2018-01-10T19:07:31.211Z,73.04
2018-01-10T19:09:59.493Z,72.79
2018-01-10T19:12:27.791Z,73.79
2018-01-10T19:14:56.100Z,74.86
2018-01-10T19:17:24.439Z,75.71
2018-01-10T19:19:52.702Z,76.32
2018-01-10T19:22:21.066Z,76.81
2018-01-10T19:24:49.315Z,76.79
2018-01-10T19:27:17.660Z,77.23
2018-01-10T19:29:45.948Z,77.67
2018-01-10T19:32:14.257Z,77.65
2018-01-10T19:34:42.852Z,76.98
2018-01-10T19:37:11.266Z,77.19
2018-01-10T19:39:39.608Z,77.22
2018-01-10T19:42:07.875Z,76.30
2018-01-10T19:44:36.209Z,76.83
2018-01-10T19:47:04.528Z,77.72
2018-01-10T19:49:32.810Z,78.15
2018-01-10T19:52:01.108Z,77.93
2018-01-10T19:54:29.377Z,78.28
2018-01-10T19:56:57.672Z,78.19
2018-01-10T19:59:25.986Z,78.13
2018-01-10T20:01:54.261Z,78.56
2018-01-10T20:04:22.532Z,77.62
2018-01-10T20:06:50.844Z,77.53
2018-01-10T20:09:19.120Z,77.58
2018-01-10T20:11:47.412Z,77.89
2018-01-10T20:14:15.673Z,77.39
2018-01-10T20:16:43.972Z,77.95
2018-01-10T20:19:12.258Z,77.90
2018-01-10T20:21:40.553Z,78.01
2018-01-10T20:24:08.820Z,77.74
2018-01-10T20:26:37.129Z,77.72
2018-01-10T20:29:05.417Z,77.65
2018-01-10T20:31:33.725Z,76.75
2018-01-10T20:34:02.030Z,76.70
2018-01-10T20:36:30.287Z,76.81
2018-01-10T20:38:58.599Z,76.41
2018-01-10T20:41:26.906Z,76.00
2018-01-10T20:43:55.197Z,75.95
2018-01-10T20:46:23.455Z,75.68
2018-01-10T20:48:51.751Z,75.17
2018-01-10T20:51:20.036Z,75.41
2018-01-10T20:53:48.328Z,75.22
2018-01-10T20:56:16.594Z,75.46
2018-01-10T20:58:44.891Z,74.94
2018-01-10T21:01:13.152Z,75.22
2018-01-10T21:03:41.471Z,75.31
2018-01-10T21:06:09.782Z,75.41
2018-01-10T21:08:38.078Z,75.32
2018-01-10T21:11:06.510Z,74.99
2018-01-10T21:13:34.736Z,75.09
2018-01-10T21:16:03.051Z,75.33
2018-01-10T21:18:31.338Z,75.33
2018-01-10T21:21:00.256Z,74.59
2018-01-10T21:23:28.543Z,74.32
2018-01-10T21:25:56.832Z,74.65
2018-01-10T21:28:25.215Z,75.00
2018-01-10T21:30:53.518Z,75.35
2018-01-10T21:33:21.802Z,75.24
2018-01-10T21:35:50.116Z,75.54
2018-01-10T21:38:18.420Z,75.85
2018-01-10T21:40:46.676Z,76.43
2018-01-10T21:43:14.998Z,76.04
2018-01-10T21:45:43.248Z,76.12
2018-01-10T21:48:11.670Z,76.59
2018-01-10T21:50:39.920Z,76.69
2018-01-10T21:53:08.881Z,76.58
2018-01-10T21:55:37.135Z,75.97
2018-01-10T21:58:05.488Z,75.84
2018-01-10T22:00:33.760Z,74.83
2018-01-10T22:03:02.065Z,75.20
2018-01-10T22:05:30.516Z,75.43
2018-01-10T22:07:58.849Z,75.30
2018-01-10T22:10:27.159Z,75.06
2018-01-10T22:12:55.432Z,75.01
2018-01-10T22:15:23.739Z,75.16
2018-01-10T22:17:52.011Z,74.87
2018-01-10T22:20:20.335Z,75.25
2018-01-10T22:22:48.599Z,75.55
2018-01-10T22:25:17.089Z,75.59
2018-01-10T22:27:45.357Z,75.68
2018-01-10T22:30:13.651Z,75.24
2018-01-10T22:32:41.932Z,75.39
2018-01-10T22:35:10.231Z,75.48
2018-01-10T22:37:38.497Z,75.61
2018-01-10T22:40:06.813Z,75.75
2018-01-10T22:42:35.106Z,75.36
2018-01-10T22:45:04.171Z,75.40
2018-01-10T22:47:32.487Z,75.48
2018-01-10T22:50:00.809Z,74.71
2018-01-10T22:52:29.220Z,74.49
2018-01-10T22:54:57.456Z,74.36
2018-01-10T22:57:25.782Z,74.48
2018-01-10T22:59:54.087Z,74.84
2018-01-10T23:02:22.455Z,74.98
2018-01-10T23:04:50.724Z,74.99
2018-01-10T23:07:19.034Z,74.99
2018-01-10T23:09:47.298Z,75.06
2018-01-10T23:12:15.594Z,74.78
2018-01-10T23:14:43.862Z,75.11
2018-01-10T23:17:12.312Z,74.59
2018-01-10T23:19:40.584Z,74.57
2018-01-10T23:22:08.886Z,74.72
2018-01-10T23:24:37.151Z,74.64
2018-01-10T23:27:05.536Z,74.88
2018-01-10T23:29:33.807Z,74.82
2018-01-10T23:32:02.675Z,74.67
2018-01-10T23:34:30.974Z,74.73
2018-01-10T23:36:59.228Z,74.83
2018-01-10T23:39:27.530Z,75.36
2018-01-10T23:41:55.877Z,75.92
2018-01-10T23:44:24.186Z,75.57
2018-01-10T23:46:52.440Z,75.89
2018-01-10T23:49:20.739Z,75.97
2018-01-10T23:51:49.030Z,75.90
2018-01-10T23:54:17.294Z,75.54
2018-01-10T23:56:45.603Z,75.83
2018-01-10T23:59:13.913Z,75.88
